Tynda, Russia
Current Conditions -  °F | °C
As of 10:30 AM on Wednesday 26 Nov 2014 (Local Time) from UHBB Reporting Station
Overcast Overcast  
Wind Chill: 13°   Ceiling: 20000
Heat Index: 21°   Visibility: 6mi
Dew Point: 16°   Wind: 7mph
Humidity: 80%   Direction: 190°S
Pressure: 29.56"   Gusts: NA
Location:  55.17°N, 124.72°E
Report Text: UHBB 260130Z 19003MPS 130V250 9999 FEW033CB SCT100 OVC200M06/M09 Q1001 NOSIG RMK QFE734/0978 36410250
Loading
Personal Weather Stations






























Interactive Weather Map New forecast layout! Learn more

10-Day Weather Forecast

Advertisements
Track Severe Weather on mobile